sensor_id;sensor_type;location;lat;lon;timestamp;pressure;altitude;pressure_sealevel;temperature;humidity
42415;BME280;28058;46.344;17.786;2023-04-07T00:02:05;118336.50;;;-144.97;61.51
42415;BME280;28058;46.344;17.786;2023-04-07T00:04:31;118336.50;;;-144.97;62.97
42415;BME280;28058;46.344;17.786;2023-04-07T00:06:58;118336.50;;;-144.97;62.16
42415;BME280;28058;46.344;17.786;2023-04-07T00:09:25;118336.50;;;-144.97;62.30
42415;BME280;28058;46.344;17.786;2023-04-07T00:11:51;118336.50;;;-144.97;62.35
42415;BME280;28058;46.344;17.786;2023-04-07T00:14:18;118336.50;;;-144.97;62.49
42415;BME280;28058;46.344;17.786;2023-04-07T00:16:45;118336.50;;;-144.97;62.99
42415;BME280;28058;46.344;17.786;2023-04-07T00:19:11;118336.50;;;-144.97;63.18
42415;BME280;28058;46.344;17.786;2023-04-07T00:21:38;118336.50;;;-144.97;62.05
42415;BME280;28058;46.344;17.786;2023-04-07T00:24:05;118336.50;;;-144.97;63.01
42415;BME280;28058;46.344;17.786;2023-04-07T00:26:31;118336.50;;;-144.97;63.10
42415;BME280;28058;46.344;17.786;2023-04-07T00:28:58;118336.50;;;-144.97;63.10
42415;BME280;28058;46.344;17.786;2023-04-07T00:31:25;118336.50;;;-144.97;64.36
42415;BME280;28058;46.344;17.786;2023-04-07T00:33:52;118336.50;;;-144.97;64.29
42415;BME280;28058;46.344;17.786;2023-04-07T00:36:19;118336.50;;;-144.97;64.52
42415;BME280;28058;46.344;17.786;2023-04-07T00:38:45;118336.50;;;-144.97;65.10
42415;BME280;28058;46.344;17.786;2023-04-07T00:41:12;118336.50;;;-144.97;65.04
42415;BME280;28058;46.344;17.786;2023-04-07T00:43:39;118336.50;;;-144.97;65.54
42415;BME280;28058;46.344;17.786;2023-04-07T00:46:05;118336.50;;;-144.97;64.99
42415;BME280;28058;46.344;17.786;2023-04-07T00:48:32;118336.50;;;-144.97;65.80
42415;BME280;28058;46.344;17.786;2023-04-07T00:50:59;118336.50;;;-144.97;66.51
42415;BME280;28058;46.344;17.786;2023-04-07T00:53:26;118336.50;;;-144.97;66.16
42415;BME280;28058;46.344;17.786;2023-04-07T00:55:53;118336.50;;;-144.97;66.05
42415;BME280;28058;46.344;17.786;2023-04-07T00:58:19;118336.50;;;-144.97;66.62
42415;BME280;28058;46.344;17.786;2023-04-07T01:00:58;118336.50;;;-144.97;66.54
42415;BME280;28058;46.344;17.786;2023-04-07T01:03:32;118336.50;;;-144.97;66.08
42415;BME280;28058;46.344;17.786;2023-04-07T01:06:01;118336.50;;;-144.97;65.25
42415;BME280;28058;46.344;17.786;2023-04-07T01:08:45;118336.50;;;-144.97;66.00
42415;BME280;28058;46.344;17.786;2023-04-07T01:11:27;118336.50;;;-144.97;65.93
42415;BME280;28058;46.344;17.786;2023-04-07T01:13:56;118336.50;;;-144.97;66.79
42415;BME280;28058;46.344;17.786;2023-04-07T01:16:31;118336.50;;;-144.97;66.78
42415;BME280;28058;46.344;17.786;2023-04-07T01:19:03;118336.50;;;-144.97;67.02
42415;BME280;28058;46.344;17.786;2023-04-07T01:21:34;118336.50;;;-144.97;66.21
42415;BME280;28058;46.344;17.786;2023-04-07T01:24:04;118336.50;;;-144.97;66.61
42415;BME280;28058;46.344;17.786;2023-04-07T01:26:38;118336.50;;;-144.97;66.98
42415;BME280;28058;46.344;17.786;2023-04-07T01:29:25;118336.50;;;-144.97;67.09
42415;BME280;28058;46.344;17.786;2023-04-07T01:31:57;118336.50;;;-144.97;66.40
42415;BME280;28058;46.344;17.786;2023-04-07T01:34:24;118336.50;;;-144.97;66.62
42415;BME280;28058;46.344;17.786;2023-04-07T01:36:53;118336.50;;;-144.97;67.32
42415;BME280;28058;46.344;17.786;2023-04-07T01:39:20;118336.50;;;-144.97;66.45
42415;BME280;28058;46.344;17.786;2023-04-07T01:41:47;118336.50;;;-144.97;67.17
42415;BME280;28058;46.344;17.786;2023-04-07T01:44:14;118336.50;;;-144.97;66.59
42415;BME280;28058;46.344;17.786;2023-04-07T01:46:41;118336.50;;;-144.97;66.68
42415;BME280;28058;46.344;17.786;2023-04-07T01:49:08;118336.50;;;-144.97;65.94
42415;BME280;28058;46.344;17.786;2023-04-07T01:51:37;118336.50;;;-144.97;65.91
42415;BME280;28058;46.344;17.786;2023-04-07T01:54:03;118336.50;;;-144.97;66.27
42415;BME280;28058;46.344;17.786;2023-04-07T01:56:31;118336.50;;;-144.97;66.07
42415;BME280;28058;46.344;17.786;2023-04-07T01:58:57;118336.50;;;-144.97;66.64
42415;BME280;28058;46.344;17.786;2023-04-07T02:01:24;118336.50;;;-144.97;67.02
42415;BME280;28058;46.344;17.786;2023-04-07T02:03:53;118336.50;;;-144.97;67.15
42415;BME280;28058;46.344;17.786;2023-04-07T02:06:22;118336.50;;;-144.97;66.75
42415;BME280;28058;46.344;17.786;2023-04-07T02:08:51;118336.50;;;-144.97;66.43
42415;BME280;28058;46.344;17.786;2023-04-07T02:11:20;118336.50;;;-144.97;66.74
42415;BME280;28058;46.344;17.786;2023-04-07T02:13:47;118336.50;;;-144.97;66.42
42415;BME280;28058;46.344;17.786;2023-04-07T02:16:14;118336.50;;;-144.97;66.38
42415;BME280;28058;46.344;17.786;2023-04-07T02:18:42;118336.50;;;-144.97;66.59
42415;BME280;28058;46.344;17.786;2023-04-07T02:21:10;118336.50;;;-144.97;66.12
42415;BME280;28058;46.344;17.786;2023-04-07T02:23:37;118336.50;;;-144.97;67.21
42415;BME280;28058;46.344;17.786;2023-04-07T02:26:04;118336.50;;;-144.97;66.31
42415;BME280;28058;46.344;17.786;2023-04-07T02:28:30;118336.50;;;-144.97;66.82
42415;BME280;28058;46.344;17.786;2023-04-07T02:30:57;118336.50;;;-144.97;66.42
42415;BME280;28058;46.344;17.786;2023-04-07T02:33:24;118336.50;;;-144.97;65.76
42415;BME280;28058;46.344;17.786;2023-04-07T02:35:50;118336.50;;;-144.97;65.34
42415;BME280;28058;46.344;17.786;2023-04-07T02:38:17;118336.50;;;-144.97;65.26
42415;BME280;28058;46.344;17.786;2023-04-07T02:40:44;118336.50;;;-144.97;65.22
42415;BME280;28058;46.344;17.786;2023-04-07T02:43:10;118336.50;;;-144.97;65.51
42415;BME280;28058;46.344;17.786;2023-04-07T02:45:37;118336.50;;;-144.97;65.70
42415;BME280;28058;46.344;17.786;2023-04-07T02:48:04;118336.50;;;-144.97;66.02
42415;BME280;28058;46.344;17.786;2023-04-07T02:50:30;118336.50;;;-144.97;66.05
42415;BME280;28058;46.344;17.786;2023-04-07T02:52:57;118336.50;;;-144.97;66.33
42415;BME280;28058;46.344;17.786;2023-04-07T02:55:24;118336.50;;;-144.97;66.16
42415;BME280;28058;46.344;17.786;2023-04-07T02:57:50;118336.50;;;-144.97;66.11
42415;BME280;28058;46.344;17.786;2023-04-07T03:00:17;118336.50;;;-144.97;66.04
42415;BME280;28058;46.344;17.786;2023-04-07T03:02:44;118336.50;;;-144.97;66.92
42415;BME280;28058;46.344;17.786;2023-04-07T03:05:11;118336.50;;;-144.97;66.67
42415;BME280;28058;46.344;17.786;2023-04-07T03:07:37;118336.50;;;-144.97;67.40
42415;BME280;28058;46.344;17.786;2023-04-07T03:10:04;118336.50;;;-144.97;66.73
42415;BME280;28058;46.344;17.786;2023-04-07T03:12:31;118336.50;;;-144.97;67.11
42415;BME280;28058;46.344;17.786;2023-04-07T03:14:57;118336.50;;;-144.97;66.40
42415;BME280;28058;46.344;17.786;2023-04-07T03:17:24;118336.50;;;-144.97;67.14
42415;BME280;28058;46.344;17.786;2023-04-07T03:19:51;118336.50;;;-144.97;66.67
42415;BME280;28058;46.344;17.786;2023-04-07T03:22:18;118336.50;;;-144.97;67.02
42415;BME280;28058;46.344;17.786;2023-04-07T03:24:44;118336.50;;;-144.97;66.70
42415;BME280;28058;46.344;17.786;2023-04-07T03:27:11;118336.50;;;-144.97;66.93
42415;BME280;28058;46.344;17.786;2023-04-07T03:29:38;118336.50;;;-144.97;66.83
42415;BME280;28058;46.344;17.786;2023-04-07T03:32:04;118336.50;;;-144.97;67.26
42415;BME280;28058;46.344;17.786;2023-04-07T03:34:31;118336.50;;;-144.97;66.77
42415;BME280;28058;46.344;17.786;2023-04-07T03:36:58;118336.50;;;-144.97;66.40
42415;BME280;28058;46.344;17.786;2023-04-07T03:39:24;118336.50;;;-144.97;66.69
42415;BME280;28058;46.344;17.786;2023-04-07T03:41:51;118336.50;;;-144.97;65.92
42415;BME280;28058;46.344;17.786;2023-04-07T03:44:18;118336.50;;;-144.97;66.23
42415;BME280;28058;46.344;17.786;2023-04-07T03:46:45;118336.50;;;-144.97;66.03
42415;BME280;28058;46.344;17.786;2023-04-07T03:49:13;118336.50;;;-144.97;66.92
42415;BME280;28058;46.344;17.786;2023-04-07T03:51:40;118336.50;;;-144.97;65.66
42415;BME280;28058;46.344;17.786;2023-04-07T03:54:07;118336.50;;;-144.97;66.07
42415;BME280;28058;46.344;17.786;2023-04-07T03:56:33;118336.50;;;-144.97;65.92
42415;BME280;28058;46.344;17.786;2023-04-07T03:59:00;118336.50;;;-144.97;66.39
42415;BME280;28058;46.344;17.786;2023-04-07T04:01:27;118336.50;;;-144.97;67.40
42415;BME280;28058;46.344;17.786;2023-04-07T04:03:53;118336.50;;;-144.97;66.49
42415;BME280;28058;46.344;17.786;2023-04-07T04:06:21;118336.50;;;-144.97;66.36
42415;BME280;28058;46.344;17.786;2023-04-07T04:08:47;118336.50;;;-144.97;66.46
42415;BME280;28058;46.344;17.786;2023-04-07T04:11:14;118336.50;;;-144.97;66.25
42415;BME280;28058;46.344;17.786;2023-04-07T04:13:41;118336.50;;;-144.97;66.12
42415;BME280;28058;46.344;17.786;2023-04-07T04:16:07;118336.50;;;-144.97;66.08
42415;BME280;28058;46.344;17.786;2023-04-07T04:18:34;118336.50;;;-144.97;66.78
42415;BME280;28058;46.344;17.786;2023-04-07T04:21:01;118336.50;;;-144.97;66.64
42415;BME280;28058;46.344;17.786;2023-04-07T04:23:27;118336.50;;;-144.97;66.38
42415;BME280;28058;46.344;17.786;2023-04-07T04:25:54;118336.50;;;-144.97;66.67
42415;BME280;28058;46.344;17.786;2023-04-07T04:28:22;118336.50;;;-144.97;65.93
42415;BME280;28058;46.344;17.786;2023-04-07T04:30:48;118336.50;;;-144.97;66.38
42415;BME280;28058;46.344;17.786;2023-04-07T04:33:15;118336.50;;;-144.97;66.29
42415;BME280;28058;46.344;17.786;2023-04-07T04:35:43;118336.50;;;-144.97;66.44
42415;BME280;28058;46.344;17.786;2023-04-07T04:38:10;118336.50;;;-144.97;66.24
42415;BME280;28058;46.344;17.786;2023-04-07T04:40:37;118336.50;;;-144.97;66.97
42415;BME280;28058;46.344;17.786;2023-04-07T04:43:03;118336.50;;;-144.97;67.43
42415;BME280;28058;46.344;17.786;2023-04-07T04:45:35;118336.50;;;-144.97;67.38
42415;BME280;28058;46.344;17.786;2023-04-07T04:48:02;118336.50;;;-144.97;67.54
42415;BME280;28058;46.344;17.786;2023-04-07T04:50:28;118336.50;;;-144.97;67.84
42415;BME280;28058;46.344;17.786;2023-04-07T04:52:55;118336.50;;;-144.97;67.68
42415;BME280;28058;46.344;17.786;2023-04-07T04:55:22;118336.50;;;-144.97;67.39
42415;BME280;28058;46.344;17.786;2023-04-07T04:57:48;118336.50;;;-144.97;67.59
42415;BME280;28058;46.344;17.786;2023-04-07T05:00:15;118336.50;;;-144.97;67.69
42415;BME280;28058;46.344;17.786;2023-04-07T05:02:42;118336.50;;;-144.97;67.67
42415;BME280;28058;46.344;17.786;2023-04-07T05:05:10;118336.50;;;-144.97;68.17
42415;BME280;28058;46.344;17.786;2023-04-07T05:07:36;118336.50;;;-144.97;68.21
42415;BME280;28058;46.344;17.786;2023-04-07T05:10:06;118336.50;;;-144.97;67.98
42415;BME280;28058;46.344;17.786;2023-04-07T05:12:32;118336.50;;;-144.97;68.62
42415;BME280;28058;46.344;17.786;2023-04-07T05:14:59;118336.50;;;-144.97;68.49
42415;BME280;28058;46.344;17.786;2023-04-07T05:17:26;118336.50;;;-144.97;68.41
42415;BME280;28058;46.344;17.786;2023-04-07T05:19:52;118336.50;;;-144.97;68.01
42415;BME280;28058;46.344;17.786;2023-04-07T05:22:19;118336.50;;;-144.97;69.59
42415;BME280;28058;46.344;17.786;2023-04-07T05:24:46;118336.50;;;-144.97;68.41
42415;BME280;28058;46.344;17.786;2023-04-07T05:27:13;118336.50;;;-144.97;67.59
42415;BME280;28058;46.344;17.786;2023-04-07T05:29:40;118336.50;;;-144.97;68.48
42415;BME280;28058;46.344;17.786;2023-04-07T05:32:06;118336.50;;;-144.97;68.08
42415;BME280;28058;46.344;17.786;2023-04-07T05:34:33;118336.50;;;-144.97;67.96
42415;BME280;28058;46.344;17.786;2023-04-07T05:37:00;118336.50;;;-144.97;67.50
42415;BME280;28058;46.344;17.786;2023-04-07T05:39:26;118336.50;;;-144.97;68.00
42415;BME280;28058;46.344;17.786;2023-04-07T05:41:53;118336.50;;;-144.97;67.47
42415;BME280;28058;46.344;17.786;2023-04-07T05:44:20;118336.50;;;-144.97;68.05
42415;BME280;28058;46.344;17.786;2023-04-07T05:46:46;118336.50;;;-144.97;67.48
42415;BME280;28058;46.344;17.786;2023-04-07T05:49:13;118336.50;;;-144.97;67.97
42415;BME280;28058;46.344;17.786;2023-04-07T05:51:45;118336.50;;;-144.97;67.71
42415;BME280;28058;46.344;17.786;2023-04-07T05:54:14;118336.50;;;-144.97;68.19
42415;BME280;28058;46.344;17.786;2023-04-07T05:56:41;118336.50;;;-144.97;67.13
42415;BME280;28058;46.344;17.786;2023-04-07T05:59:07;118336.50;;;-144.97;66.03
42415;BME280;28058;46.344;17.786;2023-04-07T06:01:35;118336.50;;;-144.97;67.24
42415;BME280;28058;46.344;17.786;2023-04-07T06:04:01;118336.50;;;-144.97;66.57
42415;BME280;28058;46.344;17.786;2023-04-07T06:06:29;118336.50;;;-144.97;66.34
42415;BME280;28058;46.344;17.786;2023-04-07T06:08:57;118336.50;;;-144.97;67.18
42415;BME280;28058;46.344;17.786;2023-04-07T06:11:25;118336.50;;;-144.97;66.70
42415;BME280;28058;46.344;17.786;2023-04-07T06:13:54;118336.50;;;-144.97;67.29
42415;BME280;28058;46.344;17.786;2023-04-07T06:16:20;118336.50;;;-144.97;67.91
42415;BME280;28058;46.344;17.786;2023-04-07T06:18:47;118336.50;;;-144.97;67.40
42415;BME280;28058;46.344;17.786;2023-04-07T06:21:14;118336.50;;;-144.97;67.40
42415;BME280;28058;46.344;17.786;2023-04-07T06:23:41;118336.50;;;-144.97;68.43
42415;BME280;28058;46.344;17.786;2023-04-07T06:26:09;118336.50;;;-144.97;67.50
42415;BME280;28058;46.344;17.786;2023-04-07T06:28:36;118336.50;;;-144.97;68.57
42415;BME280;28058;46.344;17.786;2023-04-07T06:31:03;118336.50;;;-144.97;66.51
42415;BME280;28058;46.344;17.786;2023-04-07T06:33:30;118336.50;;;-144.97;66.52
42415;BME280;28058;46.344;17.786;2023-04-07T06:35:57;118336.50;;;-144.97;66.94
42415;BME280;28058;46.344;17.786;2023-04-07T06:38:23;118336.50;;;-144.97;66.91
42415;BME280;28058;46.344;17.786;2023-04-07T06:40:50;118336.50;;;-144.97;67.27
42415;BME280;28058;46.344;17.786;2023-04-07T06:43:17;118336.50;;;-144.97;65.99
42415;BME280;28058;46.344;17.786;2023-04-07T06:45:44;118336.50;;;-144.97;65.60
42415;BME280;28058;46.344;17.786;2023-04-07T06:48:10;118336.50;;;-144.97;66.09
42415;BME280;28058;46.344;17.786;2023-04-07T06:50:37;118336.50;;;-144.97;64.25
42415;BME280;28058;46.344;17.786;2023-04-07T06:53:04;118336.50;;;-144.97;64.03
42415;BME280;28058;46.344;17.786;2023-04-07T06:55:31;118336.50;;;-144.97;63.25
42415;BME280;28058;46.344;17.786;2023-04-07T06:57:58;118336.50;;;-144.97;63.58
42415;BME280;28058;46.344;17.786;2023-04-07T07:00:24;118336.50;;;-144.97;63.08
42415;BME280;28058;46.344;17.786;2023-04-07T07:02:52;118336.50;;;-144.97;63.77
42415;BME280;28058;46.344;17.786;2023-04-07T07:05:19;118336.50;;;-144.97;61.84
42415;BME280;28058;46.344;17.786;2023-04-07T07:07:46;118336.50;;;-144.97;61.80
42415;BME280;28058;46.344;17.786;2023-04-07T07:10:12;118336.50;;;-144.97;62.40
42415;BME280;28058;46.344;17.786;2023-04-07T07:12:39;118336.50;;;-144.97;60.76
42415;BME280;28058;46.344;17.786;2023-04-07T07:15:06;118336.50;;;-144.97;61.41
42415;BME280;28058;46.344;17.786;2023-04-07T07:17:33;118336.50;;;-144.97;62.30
42415;BME280;28058;46.344;17.786;2023-04-07T07:19:59;118336.50;;;-144.97;62.93
42415;BME280;28058;46.344;17.786;2023-04-07T07:22:26;118336.50;;;-144.97;62.26
42415;BME280;28058;46.344;17.786;2023-04-07T07:24:53;118336.50;;;-144.97;61.27
42415;BME280;28058;46.344;17.786;2023-04-07T07:27:19;118336.50;;;-144.97;60.83
42415;BME280;28058;46.344;17.786;2023-04-07T07:29:46;118336.50;;;-144.97;61.37
42415;BME280;28058;46.344;17.786;2023-04-07T07:32:13;118336.50;;;-144.97;62.54
42415;BME280;28058;46.344;17.786;2023-04-07T07:34:39;118336.50;;;-144.97;59.98
42415;BME280;28058;46.344;17.786;2023-04-07T07:37:06;118336.50;;;-144.97;57.83
42415;BME280;28058;46.344;17.786;2023-04-07T07:39:33;118336.50;;;-144.97;56.52
42415;BME280;28058;46.344;17.786;2023-04-07T07:42:00;118336.50;;;-144.97;55.96
42415;BME280;28058;46.344;17.786;2023-04-07T07:44:26;118336.50;;;-144.97;57.85
42415;BME280;28058;46.344;17.786;2023-04-07T07:46:55;118336.50;;;-144.97;61.20
42415;BME280;28058;46.344;17.786;2023-04-07T07:49:22;118336.50;;;-144.97;60.31
42415;BME280;28058;46.344;17.786;2023-04-07T07:51:49;118336.50;;;-144.97;59.64
42415;BME280;28058;46.344;17.786;2023-04-07T07:54:15;118336.50;;;-144.97;59.39
42415;BME280;28058;46.344;17.786;2023-04-07T07:56:42;118336.50;;;-144.97;59.57
42415;BME280;28058;46.344;17.786;2023-04-07T07:59:09;118336.50;;;-144.97;58.15
42415;BME280;28058;46.344;17.786;2023-04-07T08:01:35;118336.50;;;-144.97;55.20
42415;BME280;28058;46.344;17.786;2023-04-07T08:04:02;118336.50;;;-144.97;55.70
42415;BME280;28058;46.344;17.786;2023-04-07T08:06:29;118336.50;;;-144.97;55.89
42415;BME280;28058;46.344;17.786;2023-04-07T08:08:56;118336.50;;;-144.97;55.62
42415;BME280;28058;46.344;17.786;2023-04-07T08:11:24;118336.50;;;-144.97;54.88
42415;BME280;28058;46.344;17.786;2023-04-07T08:13:51;118336.50;;;-144.97;53.52
42415;BME280;28058;46.344;17.786;2023-04-07T08:16:19;118336.50;;;-144.97;52.84
42415;BME280;28058;46.344;17.786;2023-04-07T08:18:47;118336.50;;;-144.97;51.76
42415;BME280;28058;46.344;17.786;2023-04-07T08:21:14;118336.50;;;-144.97;51.45
42415;BME280;28058;46.344;17.786;2023-04-07T08:23:41;118336.50;;;-144.97;51.38
42415;BME280;28058;46.344;17.786;2023-04-07T08:26:08;118336.50;;;-144.97;51.70
42415;BME280;28058;46.344;17.786;2023-04-07T08:28:34;118336.50;;;-144.97;49.30
42415;BME280;28058;46.344;17.786;2023-04-07T08:31:02;118336.50;;;-144.97;49.22
42415;BME280;28058;46.344;17.786;2023-04-07T08:33:29;118336.50;;;-144.97;48.09
42415;BME280;28058;46.344;17.786;2023-04-07T08:35:55;118336.50;;;-144.97;46.39
42415;BME280;28058;46.344;17.786;2023-04-07T08:38:22;118336.50;;;-144.97;46.05
42415;BME280;28058;46.344;17.786;2023-04-07T08:40:51;118336.50;;;-144.97;46.58
42415;BME280;28058;46.344;17.786;2023-04-07T08:43:20;118336.50;;;-144.97;46.54
42415;BME280;28058;46.344;17.786;2023-04-07T08:45:47;118336.50;;;-144.97;47.20
42415;BME280;28058;46.344;17.786;2023-04-07T08:48:18;118336.50;;;-144.97;47.43
42415;BME280;28058;46.344;17.786;2023-04-07T08:50:48;118336.50;;;-144.97;46.87
42415;BME280;28058;46.344;17.786;2023-04-07T08:53:22;118336.50;;;-144.97;47.04
42415;BME280;28058;46.344;17.786;2023-04-07T08:55:49;118336.50;;;-144.97;46.15
42415;BME280;28058;46.344;17.786;2023-04-07T08:58:16;118336.50;;;-144.97;46.04
42415;BME280;28058;46.344;17.786;2023-04-07T09:00:43;118336.50;;;-144.97;46.07
42415;BME280;28058;46.344;17.786;2023-04-07T09:03:12;118336.50;;;-144.97;45.79
42415;BME280;28058;46.344;17.786;2023-04-07T09:05:39;118336.50;;;-144.97;45.32
42415;BME280;28058;46.344;17.786;2023-04-07T09:08:06;118336.50;;;-144.97;44.96
42415;BME280;28058;46.344;17.786;2023-04-07T09:10:32;118336.50;;;-144.97;45.31
42415;BME280;28058;46.344;17.786;2023-04-07T09:12:59;118336.50;;;-144.97;45.04
42415;BME280;28058;46.344;17.786;2023-04-07T09:15:29;118336.50;;;-144.97;45.48
42415;BME280;28058;46.344;17.786;2023-04-07T09:17:57;118336.50;;;-144.97;45.74
42415;BME280;28058;46.344;17.786;2023-04-07T09:20:24;118336.50;;;-144.97;45.37
42415;BME280;28058;46.344;17.786;2023-04-07T09:22:51;118336.50;;;-144.97;45.00
42415;BME280;28058;46.344;17.786;2023-04-07T09:25:18;118336.50;;;-144.97;45.05
42415;BME280;28058;46.344;17.786;2023-04-07T09:30:23;118336.50;;;-144.97;44.71
42415;BME280;28058;46.344;17.786;2023-04-07T09:32:50;118336.50;;;-144.97;44.33
42415;BME280;28058;46.344;17.786;2023-04-07T09:35:17;118336.50;;;-144.97;43.60
42415;BME280;28058;46.344;17.786;2023-04-07T09:37:47;118336.50;;;-144.97;44.46
42415;BME280;28058;46.344;17.786;2023-04-07T09:40:26;118336.50;;;-144.97;44.69
42415;BME280;28058;46.344;17.786;2023-04-07T09:42:53;118336.50;;;-144.97;45.59
42415;BME280;28058;46.344;17.786;2023-04-07T09:45:23;118336.50;;;-144.97;45.24
42415;BME280;28058;46.344;17.786;2023-04-07T09:48:04;118336.50;;;-144.97;45.56
42415;BME280;28058;46.344;17.786;2023-04-07T09:50:34;118336.50;;;-144.97;45.82
42415;BME280;28058;46.344;17.786;2023-04-07T09:53:02;118336.50;;;-144.97;45.84
42415;BME280;28058;46.344;17.786;2023-04-07T09:55:30;118336.50;;;-144.97;46.54
42415;BME280;28058;46.344;17.786;2023-04-07T09:57:57;118336.50;;;-144.97;47.00
42415;BME280;28058;46.344;17.786;2023-04-07T10:00:23;118336.50;;;-144.97;46.07
42415;BME280;28058;46.344;17.786;2023-04-07T10:02:51;118336.50;;;-144.97;46.01
42415;BME280;28058;46.344;17.786;2023-04-07T10:05:18;118336.50;;;-144.97;46.68
42415;BME280;28058;46.344;17.786;2023-04-07T10:07:48;118336.50;;;-144.97;46.22
42415;BME280;28058;46.344;17.786;2023-04-07T10:10:14;118336.50;;;-144.97;46.00
42415;BME280;28058;46.344;17.786;2023-04-07T10:12:42;118336.50;;;-144.97;44.32
42415;BME280;28058;46.344;17.786;2023-04-07T10:15:11;118336.50;;;-144.97;44.66
42415;BME280;28058;46.344;17.786;2023-04-07T10:17:39;118336.50;;;-144.97;43.95
42415;BME280;28058;46.344;17.786;2023-04-07T10:20:07;118336.50;;;-144.97;43.90
42415;BME280;28058;46.344;17.786;2023-04-07T10:22:35;118336.50;;;-144.97;43.76
42415;BME280;28058;46.344;17.786;2023-04-07T10:25:05;118336.50;;;-144.97;43.43
42415;BME280;28058;46.344;17.786;2023-04-07T10:27:39;118336.50;;;-144.97;42.93
42415;BME280;28058;46.344;17.786;2023-04-07T10:30:20;118336.50;;;-144.97;42.90
42415;BME280;28058;46.344;17.786;2023-04-07T10:32:48;118336.50;;;-144.97;42.32
42415;BME280;28058;46.344;17.786;2023-04-07T10:35:15;118336.50;;;-144.97;42.67
42415;BME280;28058;46.344;17.786;2023-04-07T10:40:28;118336.50;;;-144.97;43.63
42415;BME280;28058;46.344;17.786;2023-04-07T10:42:55;118336.50;;;-144.97;43.98
42415;BME280;28058;46.344;17.786;2023-04-07T10:48:08;118336.50;;;-144.97;43.71
42415;BME280;28058;46.344;17.786;2023-04-07T10:50:35;118336.50;;;-144.97;43.93
42415;BME280;28058;46.344;17.786;2023-04-07T10:58:12;118336.50;;;-144.97;43.49
42415;BME280;28058;46.344;17.786;2023-04-07T11:00:39;118336.50;;;-144.97;44.09
42415;BME280;28058;46.344;17.786;2023-04-07T11:03:12;118336.50;;;-144.97;43.83
42415;BME280;28058;46.344;17.786;2023-04-07T11:05:39;118336.50;;;-144.97;43.68
42415;BME280;28058;46.344;17.786;2023-04-07T11:08:06;118336.50;;;-144.97;43.93
42415;BME280;28058;46.344;17.786;2023-04-07T11:10:33;118336.50;;;-144.97;44.17
42415;BME280;28058;46.344;17.786;2023-04-07T11:13:02;118336.50;;;-144.97;44.07
42415;BME280;28058;46.344;17.786;2023-04-07T11:15:29;118336.50;;;-144.97;43.75
42415;BME280;28058;46.344;17.786;2023-04-07T11:18:12;118336.50;;;-144.97;43.25
42415;BME280;28058;46.344;17.786;2023-04-07T11:20:50;118336.50;;;-144.97;41.85
42415;BME280;28058;46.344;17.786;2023-04-07T11:23:18;118336.50;;;-144.97;41.67
42415;BME280;28058;46.344;17.786;2023-04-07T11:25:46;118336.50;;;-144.97;42.75
42415;BME280;28058;46.344;17.786;2023-04-07T11:28:13;118336.50;;;-144.97;41.34
42415;BME280;28058;46.344;17.786;2023-04-07T11:30:44;118336.50;;;-144.97;41.51
42415;BME280;28058;46.344;17.786;2023-04-07T11:33:15;118336.50;;;-144.97;41.27
42415;BME280;28058;46.344;17.786;2023-04-07T11:38:18;118336.50;;;-144.97;40.90
42415;BME280;28058;46.344;17.786;2023-04-07T11:40:44;118336.50;;;-144.97;41.32
42415;BME280;28058;46.344;17.786;2023-04-07T11:43:15;118336.50;;;-144.97;41.28
42415;BME280;28058;46.344;17.786;2023-04-07T11:45:42;118336.50;;;-144.97;40.88
42415;BME280;28058;46.344;17.786;2023-04-07T11:48:25;118336.50;;;-144.97;41.00
42415;BME280;28058;46.344;17.786;2023-04-07T11:50:52;118336.50;;;-144.97;40.82
42415;BME280;28058;46.344;17.786;2023-04-07T11:53:28;118336.50;;;-144.97;40.70
42415;BME280;28058;46.344;17.786;2023-04-07T11:56:02;118336.50;;;-144.97;41.27
42415;BME280;28058;46.344;17.786;2023-04-07T11:58:29;118336.50;;;-144.97;42.09
42415;BME280;28058;46.344;17.786;2023-04-07T12:00:56;118336.50;;;-144.97;41.69
42415;BME280;28058;46.344;17.786;2023-04-07T12:03:23;118336.50;;;-144.97;41.76
42415;BME280;28058;46.344;17.786;2023-04-07T12:05:50;118336.50;;;-144.97;41.84
42415;BME280;28058;46.344;17.786;2023-04-07T12:08:17;118336.50;;;-144.97;40.70
42415;BME280;28058;46.344;17.786;2023-04-07T12:10:45;118336.50;;;-144.97;41.04
42415;BME280;28058;46.344;17.786;2023-04-07T12:13:12;118336.50;;;-144.97;40.83
42415;BME280;28058;46.344;17.786;2023-04-07T12:15:38;118336.50;;;-144.97;40.45
42415;BME280;28058;46.344;17.786;2023-04-07T12:18:05;118336.50;;;-144.97;39.85
42415;BME280;28058;46.344;17.786;2023-04-07T12:20:32;118336.50;;;-144.97;39.96
42415;BME280;28058;46.344;17.786;2023-04-07T12:23:01;118336.50;;;-144.97;39.13
42415;BME280;28058;46.344;17.786;2023-04-07T12:25:27;118336.50;;;-144.97;39.59
42415;BME280;28058;46.344;17.786;2023-04-07T12:27:54;118336.50;;;-144.97;40.07
42415;BME280;28058;46.344;17.786;2023-04-07T12:30:21;118336.50;;;-144.97;39.48
42415;BME280;28058;46.344;17.786;2023-04-07T12:32:47;118336.50;;;-144.97;40.01
42415;BME280;28058;46.344;17.786;2023-04-07T12:35:14;118336.50;;;-144.97;39.69
42415;BME280;28058;46.344;17.786;2023-04-07T12:37:41;118336.50;;;-144.97;39.92
42415;BME280;28058;46.344;17.786;2023-04-07T12:40:08;118336.50;;;-144.97;40.39